Terminal Aerodrome Forecast
Issued by NWS

Current Version | Previous Version | Text Only | Print | Product List | Glossary On
Versions: 1 2 3 4 5 6 7 8 9 10 11 12 13
733
FTUS46 KSTO 121425 AAA
TAFSMF
TAF AMD
KSMF 121425Z 1214/1312 VRB04KT 4SM BR SCT250
      TEMPO 1214/1217 1SM BR
     FM121700 VRB04KT P6SM SCT250=

USA.gov is the U.S. government's official web portal to all federal, state and local government web resources and services.